sensor_id;sensor_type;location;lat;lon;timestamp;P1;durP1;ratioP1;P2;durP2;ratioP2
52322;SDS011;38263;52.920;6.238;2023-12-28T00:01:26;5.72;;;3.05;;
52322;SDS011;38263;52.920;6.238;2023-12-28T00:03:52;4.97;;;2.97;;
52322;SDS011;38263;52.920;6.238;2023-12-28T00:06:18;8.48;;;3.55;;
52322;SDS011;38263;52.920;6.238;2023-12-28T00:08:44;6.47;;;3.58;;
52322;SDS011;38263;52.920;6.238;2023-12-28T00:11:11;5.47;;;3.05;;
52322;SDS011;38263;52.920;6.238;2023-12-28T00:13:37;7.72;;;3.47;;
52322;SDS011;38263;52.920;6.238;2023-12-28T00:16:03;4.88;;;2.90;;
52322;SDS011;38263;52.920;6.238;2023-12-28T00:18:29;5.07;;;3.50;;
52322;SDS011;38263;52.920;6.238;2023-12-28T00:20:55;3.53;;;3.20;;
52322;SDS011;38263;52.920;6.238;2023-12-28T00:23:21;4.10;;;3.42;;
52322;SDS011;38263;52.920;6.238;2023-12-28T00:25:47;4.10;;;2.85;;
52322;SDS011;38263;52.920;6.238;2023-12-28T00:28:13;10.48;;;3.85;;
52322;SDS011;38263;52.920;6.238;2023-12-28T00:30:40;5.60;;;3.72;;
52322;SDS011;38263;52.920;6.238;2023-12-28T00:33:06;7.90;;;3.35;;
52322;SDS011;38263;52.920;6.238;2023-12-28T00:35:32;10.43;;;4.28;;
52322;SDS011;38263;52.920;6.238;2023-12-28T00:37:57;6.88;;;3.78;;
52322;SDS011;38263;52.920;6.238;2023-12-28T00:40:23;6.00;;;3.85;;
52322;SDS011;38263;52.920;6.238;2023-12-28T00:42:49;10.95;;;4.88;;
52322;SDS011;38263;52.920;6.238;2023-12-28T00:45:15;8.65;;;3.67;;
52322;SDS011;38263;52.920;6.238;2023-12-28T00:47:41;5.93;;;3.40;;
52322;SDS011;38263;52.920;6.238;2023-12-28T00:50:08;5.68;;;3.53;;
52322;SDS011;38263;52.920;6.238;2023-12-28T00:52:36;10.75;;;3.83;;
52322;SDS011;38263;52.920;6.238;2023-12-28T00:55:03;12.07;;;4.00;;
52322;SDS011;38263;52.920;6.238;2023-12-28T00:57:29;7.88;;;3.60;;
52322;SDS011;38263;52.920;6.238;2023-12-28T00:59:55;8.98;;;4.18;;
52322;SDS011;38263;52.920;6.238;2023-12-28T01:02:21;8.15;;;3.65;;
52322;SDS011;38263;52.920;6.238;2023-12-28T01:04:46;9.82;;;3.75;;
52322;SDS011;38263;52.920;6.238;2023-12-28T01:07:12;15.10;;;4.05;;
52322;SDS011;38263;52.920;6.238;2023-12-28T01:09:38;7.18;;;3.08;;
52322;SDS011;38263;52.920;6.238;2023-12-28T01:12:04;8.00;;;3.45;;
52322;SDS011;38263;52.920;6.238;2023-12-28T01:14:31;5.05;;;2.60;;
52322;SDS011;38263;52.920;6.238;2023-12-28T01:16:57;12.98;;;3.83;;
52322;SDS011;38263;52.920;6.238;2023-12-28T01:19:23;7.35;;;3.50;;
52322;SDS011;38263;52.920;6.238;2023-12-28T01:21:49;13.70;;;3.42;;
52322;SDS011;38263;52.920;6.238;2023-12-28T01:24:15;9.52;;;3.42;;
52322;SDS011;38263;52.920;6.238;2023-12-28T01:26:41;15.43;;;4.28;;
52322;SDS011;38263;52.920;6.238;2023-12-28T01:29:07;6.50;;;3.25;;
52322;SDS011;38263;52.920;6.238;2023-12-28T01:31:33;12.00;;;3.03;;
52322;SDS011;38263;52.920;6.238;2023-12-28T01:34:00;8.43;;;2.92;;
52322;SDS011;38263;52.920;6.238;2023-12-28T01:36:26;14.10;;;3.83;;
52322;SDS011;38263;52.920;6.238;2023-12-28T01:38:54;7.30;;;3.85;;
52322;SDS011;38263;52.920;6.238;2023-12-28T01:41:21;14.13;;;3.45;;
52322;SDS011;38263;52.920;6.238;2023-12-28T01:43:47;9.98;;;4.20;;
52322;SDS011;38263;52.920;6.238;2023-12-28T01:46:16;15.18;;;3.45;;
52322;SDS011;38263;52.920;6.238;2023-12-28T01:48:44;11.38;;;3.70;;
52322;SDS011;38263;52.920;6.238;2023-12-28T01:51:13;9.95;;;3.25;;
52322;SDS011;38263;52.920;6.238;2023-12-28T01:53:40;6.25;;;3.70;;
52322;SDS011;38263;52.920;6.238;2023-12-28T01:56:06;7.55;;;3.13;;
52322;SDS011;38263;52.920;6.238;2023-12-28T01:58:33;12.77;;;4.03;;
52322;SDS011;38263;52.920;6.238;2023-12-28T02:01:01;14.65;;;4.00;;
52322;SDS011;38263;52.920;6.238;2023-12-28T02:03:27;11.27;;;3.08;;
52322;SDS011;38263;52.920;6.238;2023-12-28T02:05:53;10.10;;;3.95;;
52322;SDS011;38263;52.920;6.238;2023-12-28T02:08:20;7.40;;;3.05;;
52322;SDS011;38263;52.920;6.238;2023-12-28T02:10:46;6.30;;;3.33;;
52322;SDS011;38263;52.920;6.238;2023-12-28T02:13:12;13.88;;;3.17;;
52322;SDS011;38263;52.920;6.238;2023-12-28T02:15:38;6.25;;;3.20;;
52322;SDS011;38263;52.920;6.238;2023-12-28T02:18:16;10.45;;;3.20;;
52322;SDS011;38263;52.920;6.238;2023-12-28T02:20:45;8.20;;;3.40;;
52322;SDS011;38263;52.920;6.238;2023-12-28T02:23:11;13.07;;;3.35;;
52322;SDS011;38263;52.920;6.238;2023-12-28T02:25:37;11.55;;;3.90;;
52322;SDS011;38263;52.920;6.238;2023-12-28T02:28:03;7.10;;;3.08;;
52322;SDS011;38263;52.920;6.238;2023-12-28T02:30:32;11.18;;;3.72;;
52322;SDS011;38263;52.920;6.238;2023-12-28T02:33:02;9.65;;;3.08;;
52322;SDS011;38263;52.920;6.238;2023-12-28T02:35:43;10.55;;;3.40;;
52322;SDS011;38263;52.920;6.238;2023-12-28T02:38:10;8.82;;;2.97;;
52322;SDS011;38263;52.920;6.238;2023-12-28T02:40:36;11.75;;;3.03;;
52322;SDS011;38263;52.920;6.238;2023-12-28T02:43:06;13.10;;;3.88;;
52322;SDS011;38263;52.920;6.238;2023-12-28T02:45:33;11.00;;;3.20;;
52322;SDS011;38263;52.920;6.238;2023-12-28T02:47:59;10.65;;;2.67;;
52322;SDS011;38263;52.920;6.238;2023-12-28T02:50:25;13.93;;;3.22;;
52322;SDS011;38263;52.920;6.238;2023-12-28T02:52:51;8.27;;;3.28;;
52322;SDS011;38263;52.920;6.238;2023-12-28T02:55:17;10.48;;;4.00;;
52322;SDS011;38263;52.920;6.238;2023-12-28T02:57:44;10.77;;;3.55;;
52322;SDS011;38263;52.920;6.238;2023-12-28T03:00:10;14.63;;;4.07;;
52322;SDS011;38263;52.920;6.238;2023-12-28T03:02:37;8.40;;;3.58;;
52322;SDS011;38263;52.920;6.238;2023-12-28T03:05:04;5.05;;;3.00;;
52322;SDS011;38263;52.920;6.238;2023-12-28T03:07:30;8.77;;;2.90;;
52322;SDS011;38263;52.920;6.238;2023-12-28T03:09:56;7.60;;;2.75;;
52322;SDS011;38263;52.920;6.238;2023-12-28T03:12:22;10.15;;;3.17;;
52322;SDS011;38263;52.920;6.238;2023-12-28T03:14:49;11.52;;;2.80;;
52322;SDS011;38263;52.920;6.238;2023-12-28T03:17:15;12.02;;;3.28;;
52322;SDS011;38263;52.920;6.238;2023-12-28T03:19:41;11.48;;;2.95;;
52322;SDS011;38263;52.920;6.238;2023-12-28T03:22:07;13.15;;;3.33;;
52322;SDS011;38263;52.920;6.238;2023-12-28T03:24:36;9.32;;;2.78;;
52322;SDS011;38263;52.920;6.238;2023-12-28T03:27:02;10.93;;;2.90;;
52322;SDS011;38263;52.920;6.238;2023-12-28T03:29:28;10.57;;;3.10;;
52322;SDS011;38263;52.920;6.238;2023-12-28T03:31:54;7.50;;;3.03;;
52322;SDS011;38263;52.920;6.238;2023-12-28T03:34:20;8.05;;;2.72;;
52322;SDS011;38263;52.920;6.238;2023-12-28T03:36:47;7.25;;;2.33;;
52322;SDS011;38263;52.920;6.238;2023-12-28T03:39:13;8.02;;;2.75;;
52322;SDS011;38263;52.920;6.238;2023-12-28T03:41:39;13.43;;;4.40;;
52322;SDS011;38263;52.920;6.238;2023-12-28T03:44:05;8.68;;;2.97;;
52322;SDS011;38263;52.920;6.238;2023-12-28T03:46:31;11.90;;;3.55;;
52322;SDS011;38263;52.920;6.238;2023-12-28T03:48:58;6.03;;;2.22;;
52322;SDS011;38263;52.920;6.238;2023-12-28T03:51:24;10.32;;;3.05;;
52322;SDS011;38263;52.920;6.238;2023-12-28T03:53:50;12.68;;;2.80;;
52322;SDS011;38263;52.920;6.238;2023-12-28T03:56:22;11.32;;;2.90;;
52322;SDS011;38263;52.920;6.238;2023-12-28T03:58:49;9.82;;;2.30;;
52322;SDS011;38263;52.920;6.238;2023-12-28T04:01:16;7.60;;;2.33;;
52322;SDS011;38263;52.920;6.238;2023-12-28T04:03:42;9.65;;;2.75;;
52322;SDS011;38263;52.920;6.238;2023-12-28T04:06:08;10.90;;;3.03;;
52322;SDS011;38263;52.920;6.238;2023-12-28T04:08:34;13.40;;;3.50;;
52322;SDS011;38263;52.920;6.238;2023-12-28T04:11:00;9.50;;;2.88;;
52322;SDS011;38263;52.920;6.238;2023-12-28T04:13:26;14.27;;;3.22;;
52322;SDS011;38263;52.920;6.238;2023-12-28T04:15:52;12.45;;;3.08;;
52322;SDS011;38263;52.920;6.238;2023-12-28T04:18:18;10.18;;;2.13;;
52322;SDS011;38263;52.920;6.238;2023-12-28T04:20:44;8.07;;;2.75;;
52322;SDS011;38263;52.920;6.238;2023-12-28T04:23:10;10.63;;;2.42;;
52322;SDS011;38263;52.920;6.238;2023-12-28T04:25:36;9.80;;;3.22;;
52322;SDS011;38263;52.920;6.238;2023-12-28T04:28:02;14.93;;;3.00;;
52322;SDS011;38263;52.920;6.238;2023-12-28T04:30:28;9.30;;;3.10;;
52322;SDS011;38263;52.920;6.238;2023-12-28T04:32:54;15.93;;;3.70;;
52322;SDS011;38263;52.920;6.238;2023-12-28T04:35:20;11.23;;;3.40;;
52322;SDS011;38263;52.920;6.238;2023-12-28T04:37:46;16.45;;;3.03;;
52322;SDS011;38263;52.920;6.238;2023-12-28T04:40:12;7.07;;;2.70;;
52322;SDS011;38263;52.920;6.238;2023-12-28T04:42:39;15.52;;;2.95;;
52322;SDS011;38263;52.920;6.238;2023-12-28T04:45:06;10.45;;;2.83;;
52322;SDS011;38263;52.920;6.238;2023-12-28T04:47:32;14.20;;;3.53;;
52322;SDS011;38263;52.920;6.238;2023-12-28T04:49:58;11.93;;;3.15;;
52322;SDS011;38263;52.920;6.238;2023-12-28T04:52:24;10.32;;;3.55;;
52322;SDS011;38263;52.920;6.238;2023-12-28T04:54:50;12.38;;;3.00;;
52322;SDS011;38263;52.920;6.238;2023-12-28T04:57:16;12.52;;;2.90;;
52322;SDS011;38263;52.920;6.238;2023-12-28T04:59:43;12.48;;;3.58;;
52322;SDS011;38263;52.920;6.238;2023-12-28T05:02:10;6.38;;;2.47;;
52322;SDS011;38263;52.920;6.238;2023-12-28T05:04:39;7.53;;;2.60;;
52322;SDS011;38263;52.920;6.238;2023-12-28T05:07:05;11.63;;;3.20;;
52322;SDS011;38263;52.920;6.238;2023-12-28T05:09:31;13.90;;;2.58;;
52322;SDS011;38263;52.920;6.238;2023-12-28T05:11:57;14.48;;;3.20;;
52322;SDS011;38263;52.920;6.238;2023-12-28T05:14:23;10.32;;;2.90;;
52322;SDS011;38263;52.920;6.238;2023-12-28T05:16:49;10.48;;;2.55;;
52322;SDS011;38263;52.920;6.238;2023-12-28T05:19:15;15.90;;;3.05;;
52322;SDS011;38263;52.920;6.238;2023-12-28T05:21:42;15.68;;;3.50;;
52322;SDS011;38263;52.920;6.238;2023-12-28T05:24:08;11.80;;;3.70;;
52322;SDS011;38263;52.920;6.238;2023-12-28T05:26:34;12.52;;;2.88;;
52322;SDS011;38263;52.920;6.238;2023-12-28T05:29:00;10.30;;;3.05;;
52322;SDS011;38263;52.920;6.238;2023-12-28T05:31:26;12.40;;;3.15;;
52322;SDS011;38263;52.920;6.238;2023-12-28T05:33:52;11.13;;;3.10;;
52322;SDS011;38263;52.920;6.238;2023-12-28T05:36:18;7.57;;;2.60;;
52322;SDS011;38263;52.920;6.238;2023-12-28T05:38:44;10.73;;;3.05;;
52322;SDS011;38263;52.920;6.238;2023-12-28T05:41:10;14.73;;;2.40;;
52322;SDS011;38263;52.920;6.238;2023-12-28T05:43:37;11.52;;;2.83;;
52322;SDS011;38263;52.920;6.238;2023-12-28T05:46:03;11.20;;;2.75;;
52322;SDS011;38263;52.920;6.238;2023-12-28T05:48:29;13.98;;;3.95;;
52322;SDS011;38263;52.920;6.238;2023-12-28T05:50:56;12.60;;;2.97;;
52322;SDS011;38263;52.920;6.238;2023-12-28T05:53:25;13.30;;;3.38;;
52322;SDS011;38263;52.920;6.238;2023-12-28T05:55:52;9.73;;;2.70;;
52322;SDS011;38263;52.920;6.238;2023-12-28T05:58:18;15.77;;;2.90;;
52322;SDS011;38263;52.920;6.238;2023-12-28T06:00:44;11.68;;;2.70;;
52322;SDS011;38263;52.920;6.238;2023-12-28T06:03:14;14.27;;;2.70;;
52322;SDS011;38263;52.920;6.238;2023-12-28T06:05:40;14.85;;;3.15;;
52322;SDS011;38263;52.920;6.238;2023-12-28T06:08:06;15.98;;;4.00;;
52322;SDS011;38263;52.920;6.238;2023-12-28T06:10:32;11.70;;;2.70;;
52322;SDS011;38263;52.920;6.238;2023-12-28T06:12:57;14.27;;;3.38;;
52322;SDS011;38263;52.920;6.238;2023-12-28T06:15:23;18.70;;;3.88;;
52322;SDS011;38263;52.920;6.238;2023-12-28T06:17:49;14.95;;;3.20;;
52322;SDS011;38263;52.920;6.238;2023-12-28T06:20:15;14.82;;;3.05;;
52322;SDS011;38263;52.920;6.238;2023-12-28T06:22:41;18.52;;;2.88;;
52322;SDS011;38263;52.920;6.238;2023-12-28T06:25:07;10.18;;;2.53;;
52322;SDS011;38263;52.920;6.238;2023-12-28T06:27:34;15.32;;;2.97;;
52322;SDS011;38263;52.920;6.238;2023-12-28T06:30:00;13.35;;;3.65;;
52322;SDS011;38263;52.920;6.238;2023-12-28T06:32:26;16.65;;;3.05;;
52322;SDS011;38263;52.920;6.238;2023-12-28T06:34:52;10.90;;;2.58;;
52322;SDS011;38263;52.920;6.238;2023-12-28T06:37:18;20.48;;;3.38;;
52322;SDS011;38263;52.920;6.238;2023-12-28T06:39:44;15.13;;;3.35;;
52322;SDS011;38263;52.920;6.238;2023-12-28T06:42:10;16.17;;;3.72;;
52322;SDS011;38263;52.920;6.238;2023-12-28T06:44:36;15.30;;;3.00;;
52322;SDS011;38263;52.920;6.238;2023-12-28T06:47:02;15.77;;;3.20;;
52322;SDS011;38263;52.920;6.238;2023-12-28T06:49:28;12.35;;;3.80;;
52322;SDS011;38263;52.920;6.238;2023-12-28T06:51:54;12.60;;;2.65;;
52322;SDS011;38263;52.920;6.238;2023-12-28T06:54:21;16.55;;;3.00;;
52322;SDS011;38263;52.920;6.238;2023-12-28T06:56:47;9.00;;;2.97;;
52322;SDS011;38263;52.920;6.238;2023-12-28T06:59:13;12.75;;;3.97;;
52322;SDS011;38263;52.920;6.238;2023-12-28T07:01:40;11.32;;;3.30;;
52322;SDS011;38263;52.920;6.238;2023-12-28T07:04:07;15.18;;;3.47;;
52322;SDS011;38263;52.920;6.238;2023-12-28T07:06:33;15.60;;;2.75;;
52322;SDS011;38263;52.920;6.238;2023-12-28T07:08:59;14.80;;;3.60;;
52322;SDS011;38263;52.920;6.238;2023-12-28T07:11:25;13.50;;;3.30;;
52322;SDS011;38263;52.920;6.238;2023-12-28T07:13:53;18.20;;;5.15;;
52322;SDS011;38263;52.920;6.238;2023-12-28T07:16:19;14.85;;;2.97;;
52322;SDS011;38263;52.920;6.238;2023-12-28T07:18:45;16.33;;;3.45;;
52322;SDS011;38263;52.920;6.238;2023-12-28T07:21:11;13.50;;;2.60;;
52322;SDS011;38263;52.920;6.238;2023-12-28T07:23:37;13.98;;;3.05;;
52322;SDS011;38263;52.920;6.238;2023-12-28T07:26:03;13.93;;;3.15;;
52322;SDS011;38263;52.920;6.238;2023-12-28T07:28:30;15.15;;;4.18;;
52322;SDS011;38263;52.920;6.238;2023-12-28T07:30:56;16.55;;;3.00;;
52322;SDS011;38263;52.920;6.238;2023-12-28T07:33:22;11.18;;;3.00;;
52322;SDS011;38263;52.920;6.238;2023-12-28T07:35:48;15.90;;;3.30;;
52322;SDS011;38263;52.920;6.238;2023-12-28T07:38:14;14.10;;;3.72;;
52322;SDS011;38263;52.920;6.238;2023-12-28T07:40:41;18.23;;;3.53;;
52322;SDS011;38263;52.920;6.238;2023-12-28T07:43:07;18.38;;;4.60;;
52322;SDS011;38263;52.920;6.238;2023-12-28T07:45:33;17.13;;;3.35;;
52322;SDS011;38263;52.920;6.238;2023-12-28T07:48:00;16.10;;;3.97;;
52322;SDS011;38263;52.920;6.238;2023-12-28T07:50:26;19.10;;;3.40;;
52322;SDS011;38263;52.920;6.238;2023-12-28T07:52:52;15.35;;;3.17;;
52322;SDS011;38263;52.920;6.238;2023-12-28T07:55:18;21.85;;;3.65;;
52322;SDS011;38263;52.920;6.238;2023-12-28T07:57:44;17.83;;;3.55;;
52322;SDS011;38263;52.920;6.238;2023-12-28T08:00:10;19.35;;;3.95;;
52322;SDS011;38263;52.920;6.238;2023-12-28T08:02:37;17.55;;;3.58;;
52322;SDS011;38263;52.920;6.238;2023-12-28T08:05:03;16.35;;;4.28;;
52322;SDS011;38263;52.920;6.238;2023-12-28T08:07:29;23.17;;;3.95;;
52322;SDS011;38263;52.920;6.238;2023-12-28T08:09:55;21.30;;;4.03;;
52322;SDS011;38263;52.920;6.238;2023-12-28T08:12:22;21.00;;;4.13;;
52322;SDS011;38263;52.920;6.238;2023-12-28T08:14:52;21.40;;;4.90;;
52322;SDS011;38263;52.920;6.238;2023-12-28T08:17:18;13.30;;;3.33;;
52322;SDS011;38263;52.920;6.238;2023-12-28T08:19:44;19.60;;;4.28;;
52322;SDS011;38263;52.920;6.238;2023-12-28T08:22:10;19.13;;;3.92;;
52322;SDS011;38263;52.920;6.238;2023-12-28T08:24:37;23.65;;;4.18;;
52322;SDS011;38263;52.920;6.238;2023-12-28T08:27:03;23.75;;;4.38;;
52322;SDS011;38263;52.920;6.238;2023-12-28T08:29:29;19.05;;;4.03;;
52322;SDS011;38263;52.920;6.238;2023-12-28T08:31:55;18.42;;;3.92;;
52322;SDS011;38263;52.920;6.238;2023-12-28T08:34:22;22.77;;;3.88;;
52322;SDS011;38263;52.920;6.238;2023-12-28T08:36:49;19.55;;;4.25;;
52322;SDS011;38263;52.920;6.238;2023-12-28T08:39:26;22.58;;;4.13;;
52322;SDS011;38263;52.920;6.238;2023-12-28T08:41:52;18.23;;;3.85;;
52322;SDS011;38263;52.920;6.238;2023-12-28T08:44:18;26.13;;;6.10;;
52322;SDS011;38263;52.920;6.238;2023-12-28T08:46:44;22.80;;;4.18;;
52322;SDS011;38263;52.920;6.238;2023-12-28T08:49:13;20.92;;;3.63;;
52322;SDS011;38263;52.920;6.238;2023-12-28T08:51:41;22.83;;;4.32;;
52322;SDS011;38263;52.920;6.238;2023-12-28T08:54:11;21.05;;;4.57;;
52322;SDS011;38263;52.920;6.238;2023-12-28T08:56:37;25.67;;;4.00;;
52322;SDS011;38263;52.920;6.238;2023-12-28T08:59:03;24.52;;;4.38;;
52322;SDS011;38263;52.920;6.238;2023-12-28T09:01:29;23.08;;;4.18;;
52322;SDS011;38263;52.920;6.238;2023-12-28T09:03:55;21.85;;;4.45;;
52322;SDS011;38263;52.920;6.238;2023-12-28T09:06:21;22.42;;;4.90;;
52322;SDS011;38263;52.920;6.238;2023-12-28T09:08:51;23.55;;;5.28;;
52322;SDS011;38263;52.920;6.238;2023-12-28T09:11:23;23.92;;;4.47;;
52322;SDS011;38263;52.920;6.238;2023-12-28T09:13:49;24.95;;;4.28;;
52322;SDS011;38263;52.920;6.238;2023-12-28T09:16:19;25.45;;;4.47;;
52322;SDS011;38263;52.920;6.238;2023-12-28T09:19:04;13.88;;;3.58;;
52322;SDS011;38263;52.920;6.238;2023-12-28T09:21:30;22.60;;;3.92;;
52322;SDS011;38263;52.920;6.238;2023-12-28T09:23:59;25.13;;;3.80;;
52322;SDS011;38263;52.920;6.238;2023-12-28T09:26:29;20.20;;;4.03;;
52322;SDS011;38263;52.920;6.238;2023-12-28T09:28:56;18.90;;;4.35;;
52322;SDS011;38263;52.920;6.238;2023-12-28T09:31:26;20.58;;;4.93;;
52322;SDS011;38263;52.920;6.238;2023-12-28T09:33:54;13.55;;;3.65;;
52322;SDS011;38263;52.920;6.238;2023-12-28T09:36:20;20.58;;;4.65;;
52322;SDS011;38263;52.920;6.238;2023-12-28T09:38:46;14.10;;;4.45;;
52322;SDS011;38263;52.920;6.238;2023-12-28T09:41:13;15.85;;;4.28;;
52322;SDS011;38263;52.920;6.238;2023-12-28T09:43:52;23.25;;;4.22;;
52322;SDS011;38263;52.920;6.238;2023-12-28T09:46:24;18.20;;;3.53;;
52322;SDS011;38263;52.920;6.238;2023-12-28T09:48:56;23.90;;;4.03;;
52322;SDS011;38263;52.920;6.238;2023-12-28T09:51:22;18.30;;;4.03;;
52322;SDS011;38263;52.920;6.238;2023-12-28T09:53:48;27.17;;;5.38;;
52322;SDS011;38263;52.920;6.238;2023-12-28T09:56:14;13.80;;;3.22;;
52322;SDS011;38263;52.920;6.238;2023-12-28T09:58:44;17.48;;;4.40;;
52322;SDS011;38263;52.920;6.238;2023-12-28T10:01:11;23.00;;;3.38;;
52322;SDS011;38263;52.920;6.238;2023-12-28T10:03:39;20.15;;;4.13;;
52322;SDS011;38263;52.920;6.238;2023-12-28T10:06:05;22.33;;;3.85;;
52322;SDS011;38263;52.920;6.238;2023-12-28T10:08:31;17.60;;;4.63;;
52322;SDS011;38263;52.920;6.238;2023-12-28T10:10:57;15.70;;;4.15;;
52322;SDS011;38263;52.920;6.238;2023-12-28T10:13:32;16.48;;;3.90;;
52322;SDS011;38263;52.920;6.238;2023-12-28T10:16:01;25.85;;;3.85;;
52322;SDS011;38263;52.920;6.238;2023-12-28T10:18:29;14.55;;;4.10;;
52322;SDS011;38263;52.920;6.238;2023-12-28T10:20:56;20.83;;;3.95;;
52322;SDS011;38263;52.920;6.238;2023-12-28T10:23:23;23.27;;;4.13;;
52322;SDS011;38263;52.920;6.238;2023-12-28T10:25:50;17.58;;;3.90;;
52322;SDS011;38263;52.920;6.238;2023-12-28T10:28:18;19.48;;;3.80;;
52322;SDS011;38263;52.920;6.238;2023-12-28T10:30:45;23.02;;;5.03;;
52322;SDS011;38263;52.920;6.238;2023-12-28T10:33:11;18.85;;;3.47;;
52322;SDS011;38263;52.920;6.238;2023-12-28T10:35:47;22.30;;;3.97;;
52322;SDS011;38263;52.920;6.238;2023-12-28T10:38:16;20.20;;;4.43;;
52322;SDS011;38263;52.920;6.238;2023-12-28T10:40:43;25.52;;;4.53;;
52322;SDS011;38263;52.920;6.238;2023-12-28T10:43:11;18.65;;;3.13;;
52322;SDS011;38263;52.920;6.238;2023-12-28T10:45:37;22.30;;;4.57;;
52322;SDS011;38263;52.920;6.238;2023-12-28T10:48:09;18.35;;;3.75;;
52322;SDS011;38263;52.920;6.238;2023-12-28T10:50:42;19.30;;;4.80;;
52322;SDS011;38263;52.920;6.238;2023-12-28T11:01:25;17.10;;;3.92;;
52322;SDS011;38263;52.920;6.238;2023-12-28T11:03:53;24.77;;;3.88;;
52322;SDS011;38263;52.920;6.238;2023-12-28T11:06:25;24.35;;;4.65;;
52322;SDS011;38263;52.920;6.238;2023-12-28T11:08:52;20.42;;;4.80;;
52322;SDS011;38263;52.920;6.238;2023-12-28T11:11:19;22.83;;;4.50;;
52322;SDS011;38263;52.920;6.238;2023-12-28T11:13:45;16.38;;;4.03;;
52322;SDS011;38263;52.920;6.238;2023-12-28T11:16:12;22.52;;;4.82;;
52322;SDS011;38263;52.920;6.238;2023-12-28T11:18:38;17.70;;;4.22;;
52322;SDS011;38263;52.920;6.238;2023-12-28T11:21:05;18.58;;;4.05;;
52322;SDS011;38263;52.920;6.238;2023-12-28T11:23:31;14.05;;;4.20;;
52322;SDS011;38263;52.920;6.238;2023-12-28T11:26:06;20.90;;;5.32;;
52322;SDS011;38263;52.920;6.238;2023-12-28T11:28:40;18.80;;;3.63;;
52322;SDS011;38263;52.920;6.238;2023-12-28T11:31:09;23.50;;;3.95;;
52322;SDS011;38263;52.920;6.238;2023-12-28T11:33:43;19.48;;;3.95;;
52322;SDS011;38263;52.920;6.238;2023-12-28T11:36:09;13.57;;;3.22;;
52322;SDS011;38263;52.920;6.238;2023-12-28T11:38:35;20.80;;;3.42;;
52322;SDS011;38263;52.920;6.238;2023-12-28T11:41:03;21.25;;;6.05;;
52322;SDS011;38263;52.920;6.238;2023-12-28T11:43:29;20.52;;;4.03;;
52322;SDS011;38263;52.920;6.238;2023-12-28T11:46:00;17.67;;;4.25;;
52322;SDS011;38263;52.920;6.238;2023-12-28T11:48:30;23.75;;;4.10;;
52322;SDS011;38263;52.920;6.238;2023-12-28T11:50:59;15.73;;;3.53;;
52322;SDS011;38263;52.920;6.238;2023-12-28T11:53:25;24.88;;;5.13;;
52322;SDS011;38263;52.920;6.238;2023-12-28T11:55:52;24.27;;;4.25;;
52322;SDS011;38263;52.920;6.238;2023-12-28T11:58:18;17.23;;;3.75;;
52322;SDS011;38263;52.920;6.238;2023-12-28T12:00:44;23.58;;;4.35;;
52322;SDS011;38263;52.920;6.238;2023-12-28T12:03:11;18.95;;;4.18;;
52322;SDS011;38263;52.920;6.238;2023-12-28T12:05:38;20.55;;;3.80;;
52322;SDS011;38263;52.920;6.238;2023-12-28T12:08:04;15.32;;;4.07;;
52322;SDS011;38263;52.920;6.238;2023-12-28T12:10:31;24.02;;;4.65;;
52322;SDS011;38263;52.920;6.238;2023-12-28T12:12:57;21.25;;;4.63;;
52322;SDS011;38263;52.920;6.238;2023-12-28T12:15:23;25.08;;;5.47;;
52322;SDS011;38263;52.920;6.238;2023-12-28T12:17:54;19.85;;;3.85;;
52322;SDS011;38263;52.920;6.238;2023-12-28T12:20:20;19.23;;;4.20;;
52322;SDS011;38263;52.920;6.238;2023-12-28T12:22:46;20.02;;;4.57;;
52322;SDS011;38263;52.920;6.238;2023-12-28T12:25:12;18.67;;;4.30;;
52322;SDS011;38263;52.920;6.238;2023-12-28T12:27:39;18.75;;;3.90;;
52322;SDS011;38263;52.920;6.238;2023-12-28T12:30:06;18.25;;;3.65;;
52322;SDS011;38263;52.920;6.238;2023-12-28T12:32:33;20.88;;;4.28;;
52322;SDS011;38263;52.920;6.238;2023-12-28T12:35:02;21.30;;;3.55;;
52322;SDS011;38263;52.920;6.238;2023-12-28T12:37:28;18.17;;;4.40;;
52322;SDS011;38263;52.920;6.238;2023-12-28T12:39:54;25.83;;;4.80;;
52322;SDS011;38263;52.920;6.238;2023-12-28T12:42:21;25.50;;;4.47;;
52322;SDS011;38263;52.920;6.238;2023-12-28T12:44:47;27.25;;;5.45;;
52322;SDS011;38263;52.920;6.238;2023-12-28T12:47:13;22.70;;;3.72;;
52322;SDS011;38263;52.920;6.238;2023-12-28T12:49:39;30.73;;;5.45;;
52322;SDS011;38263;52.920;6.238;2023-12-28T12:52:08;23.95;;;4.82;;
52322;SDS011;38263;52.920;6.238;2023-12-28T12:54:34;18.30;;;3.97;;
52322;SDS011;38263;52.920;6.238;2023-12-28T12:57:04;24.42;;;4.38;;
52322;SDS011;38263;52.920;6.238;2023-12-28T12:59:32;24.63;;;4.07;;
52322;SDS011;38263;52.920;6.238;2023-12-28T13:01:58;20.33;;;6.15;;
52322;SDS011;38263;52.920;6.238;2023-12-28T13:04:26;24.40;;;5.43;;
52322;SDS011;38263;52.920;6.238;2023-12-28T13:06:55;18.42;;;3.80;;
52322;SDS011;38263;52.920;6.238;2023-12-28T13:09:32;27.02;;;4.47;;
52322;SDS011;38263;52.920;6.238;2023-12-28T13:12:01;25.00;;;4.25;;
52322;SDS011;38263;52.920;6.238;2023-12-28T13:14:28;27.75;;;4.55;;
52322;SDS011;38263;52.920;6.238;2023-12-28T13:16:55;19.27;;;4.93;;
52322;SDS011;38263;52.920;6.238;2023-12-28T13:19:24;19.05;;;4.28;;
52322;SDS011;38263;52.920;6.238;2023-12-28T13:21:50;15.95;;;4.22;;
52322;SDS011;38263;52.920;6.238;2023-12-28T13:24:16;23.05;;;4.65;;
52322;SDS011;38263;52.920;6.238;2023-12-28T13:26:42;17.30;;;4.60;;
52322;SDS011;38263;52.920;6.238;2023-12-28T13:29:08;27.13;;;4.55;;
52322;SDS011;38263;52.920;6.238;2023-12-28T13:31:34;20.38;;;5.22;;
52322;SDS011;38263;52.920;6.238;2023-12-28T13:34:00;20.25;;;4.38;;
52322;SDS011;38263;52.920;6.238;2023-12-28T13:36:26;23.63;;;3.80;;
52322;SDS011;38263;52.920;6.238;2023-12-28T13:38:58;21.75;;;5.40;;
52322;SDS011;38263;52.920;6.238;2023-12-28T13:41:25;14.93;;;3.60;;
52322;SDS011;38263;52.920;6.238;2023-12-28T13:43:54;23.23;;;4.65;;
52322;SDS011;38263;52.920;6.238;2023-12-28T13:46:27;21.25;;;4.72;;
52322;SDS011;38263;52.920;6.238;2023-12-28T13:48:53;17.05;;;3.72;;
52322;SDS011;38263;52.920;6.238;2023-12-28T13:51:19;19.63;;;3.63;;
52322;SDS011;38263;52.920;6.238;2023-12-28T13:53:46;19.10;;;4.60;;
52322;SDS011;38263;52.920;6.238;2023-12-28T13:56:13;16.38;;;3.90;;
52322;SDS011;38263;52.920;6.238;2023-12-28T13:59:06;18.95;;;3.33;;
52322;SDS011;38263;52.920;6.238;2023-12-28T14:01:32;18.30;;;4.45;;
52322;SDS011;38263;52.920;6.238;2023-12-28T14:03:58;20.13;;;4.00;;
52322;SDS011;38263;52.920;6.238;2023-12-28T14:06:24;18.35;;;3.53;;
52322;SDS011;38263;52.920;6.238;2023-12-28T14:08:50;16.08;;;3.83;;
52322;SDS011;38263;52.920;6.238;2023-12-28T14:11:16;22.92;;;4.90;;
52322;SDS011;38263;52.920;6.238;2023-12-28T14:13:45;19.38;;;3.97;;
52322;SDS011;38263;52.920;6.238;2023-12-28T14:16:22;23.42;;;3.25;;
52322;SDS011;38263;52.920;6.238;2023-12-28T14:18:51;20.20;;;4.82;;
52322;SDS011;38263;52.920;6.238;2023-12-28T14:21:18;21.13;;;4.10;;
52322;SDS011;38263;52.920;6.238;2023-12-28T14:23:44;21.65;;;4.85;;
52322;SDS011;38263;52.920;6.238;2023-12-28T14:26:14;22.33;;;4.38;;
52322;SDS011;38263;52.920;6.238;2023-12-28T14:29:23;20.85;;;4.53;;
52322;SDS011;38263;52.920;6.238;2023-12-28T14:32:15;24.10;;;4.43;;
52322;SDS011;38263;52.920;6.238;2023-12-28T14:35:57;25.70;;;4.38;;
52322;SDS011;38263;52.920;6.238;2023-12-28T14:39:19;22.33;;;4.47;;
52322;SDS011;38263;52.920;6.238;2023-12-28T14:42:28;18.33;;;4.15;;
52322;SDS011;38263;52.920;6.238;2023-12-28T14:45:10;21.95;;;4.20;;
52322;SDS011;38263;52.920;6.238;2023-12-28T14:49:01;29.83;;;5.35;;